createdAt,value
2022-09-21T00:01:08.962Z,48.20
2022-09-21T00:03:37.110Z,48.09
2022-09-21T00:06:06.245Z,48.20
2022-09-21T00:08:34.362Z,48.19
2022-09-21T00:11:03.661Z,47.95
2022-09-21T00:13:33.506Z,48.25
2022-09-21T00:16:06.001Z,48.20
2022-09-21T00:18:35.207Z,48.20
2022-09-21T00:21:07.287Z,47.99
2022-09-21T00:23:36.229Z,48.15
2022-09-21T00:26:08.717Z,47.92
2022-09-21T00:28:37.591Z,47.89
2022-09-21T00:31:10.194Z,48.16
2022-09-21T00:33:38.172Z,47.78
2022-09-21T00:36:07.276Z,47.93
2022-09-21T00:38:36.801Z,48.07
2022-09-21T00:41:05.864Z,47.97
2022-09-21T00:43:35.484Z,48.07
2022-09-21T00:46:07.970Z,47.85
2022-09-21T00:48:36.047Z,48.05
2022-09-21T00:51:07.967Z,48.17
2022-09-21T00:53:36.497Z,48.09
2022-09-21T00:56:06.594Z,48.08
2022-09-21T00:58:40.657Z,48.24
2022-09-21T01:01:12.517Z,47.98
2022-09-21T01:03:40.790Z,48.06
2022-09-21T01:06:08.876Z,48.06
2022-09-21T01:08:37.902Z,47.84
2022-09-21T01:11:25.625Z,47.62
2022-09-21T01:14:15.834Z,47.84
2022-09-21T01:16:52.856Z,47.61
2022-09-21T01:19:39.234Z,47.65
2022-09-21T01:22:17.124Z,47.80
2022-09-21T01:25:04.897Z,47.73
2022-09-21T01:27:50.713Z,47.64
2022-09-21T01:30:21.486Z,47.63
2022-09-21T01:32:57.102Z,47.64
2022-09-21T01:35:29.671Z,47.93
2022-09-21T01:38:02.768Z,47.74
2022-09-21T01:40:35.987Z,47.92
2022-09-21T01:43:07.266Z,47.86
2022-09-21T01:45:40.900Z,47.65
2022-09-21T01:48:09.548Z,47.63
2022-09-21T01:50:42.483Z,47.76
2022-09-21T01:53:14.793Z,47.58
2022-09-21T01:55:49.941Z,47.82
2022-09-21T01:58:24.043Z,47.79
2022-09-21T02:00:58.085Z,47.69
2022-09-21T02:03:31.006Z,47.72
2022-09-21T02:06:00.695Z,47.93
2022-09-21T02:08:32.359Z,47.45
2022-09-21T02:11:02.726Z,47.77
2022-09-21T02:13:36.746Z,47.58
2022-09-21T02:16:22.306Z,47.39
2022-09-21T02:19:00.826Z,47.44
2022-09-21T02:21:34.378Z,47.59
2022-09-21T02:24:09.935Z,47.46
2022-09-21T02:26:46.153Z,47.45
2022-09-21T02:29:21.852Z,47.68
2022-09-21T02:31:59.766Z,47.33
2022-09-21T02:34:35.498Z,47.32
2022-09-21T02:37:10.509Z,47.46
2022-09-21T02:39:46.046Z,47.44
2022-09-21T02:42:20.596Z,47.38
2022-09-21T02:44:57.061Z,47.42
2022-09-21T02:47:31.890Z,47.50
2022-09-21T02:50:06.470Z,47.48
2022-09-21T02:52:37.193Z,47.61
2022-09-21T02:55:06.646Z,47.19
2022-09-21T02:57:34.728Z,47.47
2022-09-21T03:00:03.630Z,47.53
2022-09-21T03:02:40.079Z,47.14
2022-09-21T03:05:09.645Z,47.06
2022-09-21T03:07:37.802Z,47.21
2022-09-21T03:10:08.286Z,47.33
2022-09-21T03:12:36.843Z,47.32
2022-09-21T03:15:05.735Z,47.26
2022-09-21T03:17:34.459Z,47.15
2022-09-21T03:20:04.362Z,47.42
2022-09-21T03:22:32.457Z,47.22
2022-09-21T03:25:00.575Z,47.33
2022-09-21T03:27:28.663Z,47.29
2022-09-21T03:30:01.309Z,47.11
2022-09-21T03:32:30.329Z,47.04
2022-09-21T03:34:58.401Z,47.13
2022-09-21T03:37:27.861Z,47.34
2022-09-21T03:39:56.013Z,47.08
2022-09-21T03:42:24.163Z,47.29
2022-09-21T03:44:52.277Z,47.08
2022-09-21T03:47:20.789Z,47.00
2022-09-21T03:49:48.881Z,47.26
2022-09-21T03:52:17.006Z,47.11
2022-09-21T03:54:47.310Z,46.97
2022-09-21T03:57:15.442Z,46.94
2022-09-21T03:59:43.679Z,46.99
2022-09-21T04:02:11.833Z,46.94
2022-09-21T04:04:39.954Z,47.03
2022-09-21T04:07:08.028Z,47.15
2022-09-21T04:09:36.133Z,46.85
2022-09-21T04:12:05.929Z,47.22
2022-09-21T04:14:34.255Z,47.04
2022-09-21T04:17:02.354Z,46.94
2022-09-21T04:19:30.448Z,46.85
2022-09-21T04:21:58.695Z,46.63
2022-09-21T04:24:27.291Z,47.14
2022-09-21T04:26:55.476Z,46.97
2022-09-21T04:29:24.990Z,46.83
2022-09-21T04:31:53.197Z,46.71
2022-09-21T04:34:21.426Z,46.66
2022-09-21T04:36:49.516Z,47.00
2022-09-21T04:39:17.627Z,47.06
2022-09-21T04:41:46.012Z,46.90
2022-09-21T04:44:14.120Z,46.94
2022-09-21T04:46:43.960Z,46.85
2022-09-21T04:49:12.041Z,47.14
2022-09-21T04:51:40.190Z,46.89
2022-09-21T04:54:08.286Z,46.75
2022-09-21T04:56:36.575Z,46.93
2022-09-21T04:59:05.219Z,46.75
2022-09-21T05:01:33.537Z,46.75
2022-09-21T05:04:03.556Z,47.07
2022-09-21T05:06:32.992Z,47.07
2022-09-21T05:09:18.827Z,46.82
2022-09-21T05:11:48.217Z,47.03
2022-09-21T05:14:16.509Z,46.90
2022-09-21T05:16:44.751Z,46.71
2022-09-21T05:19:14.263Z,47.09
2022-09-21T05:21:42.367Z,46.93
2022-09-21T05:24:10.893Z,47.02
2022-09-21T05:26:39.287Z,46.94
2022-09-21T05:29:08.046Z,46.90
2022-09-21T05:31:44.592Z,46.96
2022-09-21T05:34:40.257Z,46.50
2022-09-21T05:37:15.237Z,46.73
2022-09-21T05:39:43.970Z,46.80
2022-09-21T05:42:12.683Z,46.92
2022-09-21T05:44:41.371Z,47.00
2022-09-21T05:47:24.470Z,46.67
2022-09-21T05:50:05.994Z,46.84
2022-09-21T05:52:46.359Z,46.64
2022-09-21T05:55:28.122Z,46.65
2022-09-21T05:58:05.618Z,46.75
2022-09-21T06:00:43.423Z,46.95
2022-09-21T06:03:29.723Z,46.80
2022-09-21T06:05:59.739Z,46.78
2022-09-21T06:08:27.989Z,46.93
2022-09-21T06:10:57.428Z,46.94
2022-09-21T06:13:26.628Z,46.90
2022-09-21T06:15:54.906Z,46.91
2022-09-21T06:18:23.000Z,46.67
2022-09-21T06:20:51.120Z,46.85
2022-09-21T06:23:20.689Z,46.96
2022-09-21T06:25:57.578Z,46.73
2022-09-21T06:28:26.919Z,46.98
2022-09-21T06:30:56.609Z,47.05
2022-09-21T06:33:25.374Z,46.74
2022-09-21T06:35:54.902Z,46.80
2022-09-21T06:38:25.263Z,46.85
2022-09-21T06:40:54.406Z,46.87
2022-09-21T06:43:22.790Z,46.87
2022-09-21T06:45:55.512Z,46.95
2022-09-21T06:48:24.233Z,47.10
2022-09-21T06:50:52.387Z,46.83
2022-09-21T06:53:20.745Z,46.78
2022-09-21T06:55:50.253Z,46.88
2022-09-21T06:58:18.409Z,46.63
2022-09-21T07:00:46.577Z,46.64
2022-09-21T07:03:14.828Z,46.57
2022-09-21T07:05:46.471Z,46.71
2022-09-21T07:11:04.184Z,46.65
2022-09-21T07:13:32.282Z,46.70
2022-09-21T07:16:04.183Z,46.77
2022-09-21T07:18:42.572Z,46.61
2022-09-21T07:21:14.614Z,46.73
2022-09-21T07:23:42.876Z,46.64
2022-09-21T07:26:13.741Z,46.89
2022-09-21T07:28:42.669Z,46.85
2022-09-21T07:31:14.014Z,46.89
2022-09-21T07:33:42.895Z,46.79
2022-09-21T07:36:13.053Z,46.75
2022-09-21T07:38:43.040Z,46.58
2022-09-21T07:41:14.094Z,46.98
2022-09-21T07:43:42.586Z,46.88
2022-09-21T07:46:12.667Z,46.81
2022-09-21T07:48:41.156Z,46.95
2022-09-21T07:51:11.247Z,46.70
2022-09-21T07:53:41.378Z,46.78
2022-09-21T07:56:10.762Z,47.01
2022-09-21T07:58:58.061Z,46.70
2022-09-21T08:01:27.261Z,46.73
2022-09-21T08:03:56.968Z,47.00
2022-09-21T08:06:27.018Z,46.90
2022-09-21T08:08:58.011Z,46.90
2022-09-21T08:11:28.039Z,46.98
2022-09-21T08:13:59.517Z,46.75
2022-09-21T08:16:29.163Z,46.97
2022-09-21T08:18:58.910Z,46.84
2022-09-21T08:21:27.087Z,46.92
2022-09-21T08:23:55.233Z,46.69
2022-09-21T08:26:24.733Z,46.97
2022-09-21T08:28:56.608Z,46.66
2022-09-21T08:31:26.601Z,46.98
2022-09-21T08:33:57.730Z,46.83
2022-09-21T08:36:26.132Z,46.87
2022-09-21T08:38:55.218Z,47.01
2022-09-21T08:41:26.158Z,46.99
2022-09-21T08:43:59.372Z,46.93
2022-09-21T08:46:32.881Z,46.98
2022-09-21T08:49:07.172Z,46.83
2022-09-21T08:51:38.588Z,47.14
2022-09-21T08:54:16.380Z,46.94
2022-09-21T08:57:04.127Z,46.97
2022-09-21T08:59:32.726Z,47.31
2022-09-21T09:02:14.520Z,47.04
2022-09-21T09:04:53.242Z,47.05
2022-09-21T09:07:56.000Z,47.13
2022-09-21T09:10:37.250Z,47.11
2022-09-21T09:13:24.207Z,47.21
2022-09-21T09:16:02.346Z,47.29
2022-09-21T09:18:43.722Z,47.22
2022-09-21T09:21:22.666Z,47.07
2022-09-21T09:24:00.519Z,47.27
2022-09-21T09:26:35.990Z,47.08
2022-09-21T09:29:12.964Z,47.34
2022-09-21T09:31:42.089Z,47.21
2022-09-21T09:34:18.324Z,47.16
2022-09-21T09:36:59.179Z,47.17
2022-09-21T09:39:30.895Z,47.14
2022-09-21T09:42:41.520Z,47.44
2022-09-21T09:45:31.513Z,47.47
2022-09-21T09:48:20.385Z,47.38
2022-09-21T09:50:50.039Z,47.38
2022-09-21T09:53:21.633Z,47.10
2022-09-21T09:55:52.861Z,47.45
2022-09-21T09:58:22.383Z,47.43
2022-09-21T10:00:54.191Z,47.47
2022-09-21T10:03:23.615Z,47.37
2022-09-21T10:05:53.597Z,47.55
2022-09-21T10:08:46.522Z,47.62
2022-09-21T10:11:16.566Z,47.35
2022-09-21T10:13:46.720Z,47.62
2022-09-21T10:16:19.977Z,47.54
2022-09-21T10:18:50.158Z,47.57
2022-09-21T10:21:22.925Z,47.42
2022-09-21T10:23:53.783Z,47.63
2022-09-21T10:26:23.048Z,47.50
2022-09-21T10:28:59.993Z,47.49
2022-09-21T10:31:30.044Z,47.57
2022-09-21T10:34:09.046Z,47.66
2022-09-21T10:36:40.037Z,47.44
2022-09-21T10:39:25.393Z,47.75
2022-09-21T10:42:00.203Z,47.45
2022-09-21T10:44:31.183Z,47.85
2022-09-21T10:47:19.714Z,47.64
2022-09-21T10:49:51.412Z,47.80
2022-09-21T10:52:24.017Z,47.65
2022-09-21T10:54:56.095Z,47.58
2022-09-21T10:57:26.411Z,47.70
2022-09-21T10:59:54.593Z,47.72
2022-09-21T11:02:36.751Z,47.60
2022-09-21T11:05:12.495Z,47.63
2022-09-21T11:07:48.058Z,47.97
2022-09-21T11:10:22.490Z,47.97
2022-09-21T11:13:01.009Z,47.94
2022-09-21T11:15:47.029Z,47.77
2022-09-21T11:18:23.244Z,47.74
2022-09-21T11:20:56.499Z,47.75
2022-09-21T11:23:43.789Z,47.99
2022-09-21T11:26:19.379Z,47.82
2022-09-21T11:28:52.448Z,47.73
2022-09-21T11:31:38.312Z,48.12
2022-09-21T11:34:54.845Z,48.22
2022-09-21T11:37:36.595Z,47.87
2022-09-21T11:40:26.281Z,48.03
2022-09-21T11:43:08.572Z,47.77
2022-09-21T11:45:52.748Z,48.18
2022-09-21T11:48:30.559Z,48.22
2022-09-21T11:51:08.860Z,47.87
2022-09-21T11:53:49.957Z,48.17
2022-09-21T11:56:35.414Z,47.97
2022-09-21T11:59:21.390Z,48.20
2022-09-21T12:02:19.667Z,48.25
2022-09-21T12:04:55.985Z,48.16
2022-09-21T12:07:44.028Z,48.33
2022-09-21T12:10:36.801Z,48.20
2022-09-21T12:13:11.998Z,48.22
2022-09-21T12:15:44.879Z,47.84
2022-09-21T12:18:18.024Z,48.19
2022-09-21T12:20:52.496Z,48.31
2022-09-21T12:23:24.584Z,47.90
2022-09-21T12:25:57.760Z,48.31
2022-09-21T12:28:31.960Z,48.29
2022-09-21T12:31:04.502Z,48.05
2022-09-21T12:33:40.483Z,48.13
2022-09-21T12:36:14.809Z,48.29
2022-09-21T12:38:48.828Z,48.12
2022-09-21T12:41:24.204Z,47.98
2022-09-21T12:44:01.916Z,48.41
2022-09-21T12:46:35.080Z,48.03
2022-09-21T12:49:14.277Z,48.41
2022-09-21T12:51:45.942Z,48.42
2022-09-21T12:54:27.253Z,48.20
2022-09-21T12:57:17.447Z,48.32
2022-09-21T13:00:04.273Z,48.42
2022-09-21T13:02:37.013Z,48.35
2022-09-21T13:05:13.086Z,48.22
2022-09-21T13:08:00.862Z,48.33
2022-09-21T13:10:58.740Z,48.23
2022-09-21T13:13:31.207Z,48.16
2022-09-21T13:16:01.671Z,48.17
2022-09-21T13:18:36.389Z,48.37
2022-09-21T13:21:17.764Z,48.41
2022-09-21T13:23:53.810Z,48.39
2022-09-21T13:26:36.017Z,48.43
2022-09-21T13:29:07.989Z,48.10
2022-09-21T13:31:57.822Z,48.66
2022-09-21T13:34:32.406Z,48.34
2022-09-21T13:37:32.910Z,48.51
2022-09-21T13:40:40.449Z,48.78
2022-09-21T13:43:58.560Z,48.60
2022-09-21T13:46:53.430Z,48.47
2022-09-21T13:49:46.155Z,48.24
2022-09-21T13:52:37.412Z,48.35
2022-09-21T13:55:07.969Z,48.54
2022-09-21T13:57:40.800Z,48.25
2022-09-21T14:00:35.614Z,48.73
2022-09-21T14:03:07.658Z,48.42
2022-09-21T14:05:42.823Z,48.53
2022-09-21T14:08:23.338Z,48.39
2022-09-21T14:10:54.568Z,48.34
2022-09-21T14:13:32.109Z,48.50
2022-09-21T14:16:45.171Z,48.72
2022-09-21T14:20:06.999Z,48.77
2022-09-21T14:22:45.774Z,48.50
2022-09-21T14:25:32.337Z,48.73
2022-09-21T14:28:04.546Z,48.62
2022-09-21T14:30:38.107Z,48.53
2022-09-21T14:33:21.209Z,48.40
2022-09-21T14:35:52.617Z,48.42
2022-09-21T14:38:25.892Z,48.68
2022-09-21T14:40:58.815Z,48.51
2022-09-21T14:43:33.926Z,48.67
2022-09-21T14:46:29.562Z,49.01
2022-09-21T14:49:16.107Z,48.58
2022-09-21T14:52:04.411Z,48.57
2022-09-21T14:54:49.572Z,48.68
2022-09-21T14:57:35.301Z,48.74
2022-09-21T15:00:24.634Z,48.67
2022-09-21T15:03:09.426Z,48.65
2022-09-21T15:05:39.510Z,48.63
2022-09-21T15:08:46.422Z,48.81
2022-09-21T15:11:25.561Z,48.69
2022-09-21T15:14:11.258Z,48.62
2022-09-21T15:16:41.951Z,48.73
2022-09-21T15:19:26.272Z,48.64
2022-09-21T15:21:55.467Z,48.73
2022-09-21T15:24:28.560Z,48.85
2022-09-21T15:27:10.512Z,48.91
2022-09-21T15:29:40.672Z,48.58
2022-09-21T15:32:09.020Z,48.50
2022-09-21T15:34:38.541Z,48.94
2022-09-21T15:37:17.133Z,48.68
2022-09-21T15:39:45.408Z,48.84
2022-09-21T15:42:23.065Z,48.99
2022-09-21T15:44:55.419Z,48.68
2022-09-21T15:47:26.172Z,48.65
2022-09-21T15:49:56.210Z,48.78
2022-09-21T15:52:31.620Z,49.00
2022-09-21T15:55:02.932Z,48.91
2022-09-21T15:57:39.158Z,48.85
2022-09-21T16:00:20.640Z,49.17
2022-09-21T16:03:04.412Z,49.00
2022-09-21T16:05:35.248Z,49.03
2022-09-21T16:08:08.293Z,48.77
2022-09-21T16:10:40.721Z,48.83
2022-09-21T16:13:36.569Z,49.14
2022-09-21T16:16:07.262Z,49.04
2022-09-21T16:18:44.469Z,48.88
2022-09-21T16:21:21.154Z,49.06
2022-09-21T16:23:51.489Z,49.10
2022-09-21T16:26:22.738Z,48.91
2022-09-21T16:28:58.475Z,48.96
2022-09-21T16:31:32.115Z,49.17
2022-09-21T16:34:05.477Z,48.95
2022-09-21T16:36:44.682Z,49.31
2022-09-21T16:39:15.796Z,49.16
2022-09-21T16:41:58.367Z,48.97
2022-09-21T16:44:31.735Z,49.16
2022-09-21T16:47:02.226Z,48.82
2022-09-21T16:49:32.792Z,48.95
2022-09-21T16:52:01.595Z,48.94
2022-09-21T16:54:30.304Z,49.09
2022-09-21T16:57:01.120Z,49.32
2022-09-21T16:59:33.232Z,49.16
2022-09-21T17:02:04.317Z,49.20
2022-09-21T17:04:33.986Z,48.85
2022-09-21T17:07:03.598Z,48.87
2022-09-21T17:09:38.048Z,48.95
2022-09-21T17:12:08.754Z,48.96
2022-09-21T17:14:41.919Z,49.12
2022-09-21T17:17:17.646Z,48.87
2022-09-21T17:19:46.657Z,49.00
2022-09-21T17:22:17.507Z,49.05
2022-09-21T17:24:51.260Z,49.35
2022-09-21T17:27:21.751Z,49.35
2022-09-21T17:29:53.970Z,49.26
2022-09-21T17:32:23.860Z,49.15
2022-09-21T17:35:01.077Z,49.30
2022-09-21T17:37:29.552Z,49.26
2022-09-21T17:39:57.616Z,49.26
2022-09-21T17:42:26.498Z,49.38
2022-09-21T17:45:14.797Z,49.31
2022-09-21T17:47:43.507Z,49.31
2022-09-21T17:50:24.037Z,49.18
2022-09-21T17:53:10.256Z,49.35
2022-09-21T17:55:39.755Z,49.16
2022-09-21T17:58:25.304Z,49.46
2022-09-21T18:01:01.897Z,49.31
2022-09-21T18:03:32.215Z,49.32
2022-09-21T18:06:01.075Z,49.24
2022-09-21T18:08:30.482Z,49.25
2022-09-21T18:11:11.869Z,49.48
2022-09-21T18:13:48.843Z,49.14
2022-09-21T18:16:36.443Z,49.35
2022-09-21T18:19:29.332Z,49.27
2022-09-21T18:22:04.911Z,49.38
2022-09-21T18:24:33.499Z,49.11
2022-09-21T18:27:02.180Z,49.54
2022-09-21T18:29:41.206Z,49.40
2022-09-21T18:32:34.725Z,49.29
2022-09-21T18:35:25.327Z,49.52
2022-09-21T18:38:05.754Z,49.46
2022-09-21T18:40:41.810Z,49.48
2022-09-21T18:43:27.158Z,49.54
2022-09-21T18:46:02.086Z,49.52
2022-09-21T18:48:41.979Z,49.49
2022-09-21T18:51:18.159Z,49.36
2022-09-21T18:53:49.299Z,49.18
2022-09-21T18:56:19.281Z,49.43
2022-09-21T18:58:49.762Z,49.22
2022-09-21T19:01:19.964Z,49.17
2022-09-21T19:03:50.423Z,49.42
2022-09-21T19:06:32.654Z,49.49
2022-09-21T19:09:06.542Z,49.31
2022-09-21T19:11:39.141Z,49.47
2022-09-21T19:14:16.763Z,49.57
2022-09-21T19:17:04.770Z,49.47
2022-09-21T19:19:41.538Z,49.53
2022-09-21T19:22:16.587Z,49.40
2022-09-21T19:24:57.097Z,49.32
2022-09-21T19:27:35.508Z,49.24
2022-09-21T19:30:10.084Z,49.52
2022-09-21T19:32:44.996Z,49.21
2022-09-21T19:35:25.811Z,49.66
2022-09-21T19:37:55.874Z,49.26
2022-09-21T19:40:25.774Z,49.31
2022-09-21T19:43:13.413Z,49.35
2022-09-21T19:45:54.338Z,49.22
2022-09-21T19:48:27.856Z,49.42
2022-09-21T19:50:59.791Z,49.23
2022-09-21T19:53:46.007Z,49.38
2022-09-21T19:56:33.388Z,49.33
2022-09-21T19:59:19.509Z,49.11
2022-09-21T20:01:55.078Z,49.52
2022-09-21T20:04:28.203Z,49.19
2022-09-21T20:07:03.915Z,49.29
2022-09-21T20:09:39.428Z,49.35
2022-09-21T20:12:18.658Z,49.47
2022-09-21T20:14:51.685Z,49.51
2022-09-21T20:17:24.396Z,49.46
2022-09-21T20:19:57.104Z,49.32
2022-09-21T20:22:35.860Z,49.40
2022-09-21T20:25:13.006Z,49.29
2022-09-21T20:27:44.985Z,49.30
2022-09-21T20:30:15.125Z,49.34
2022-09-21T20:32:45.327Z,49.54
2022-09-21T20:35:17.121Z,49.53
2022-09-21T20:37:47.152Z,49.50
2022-09-21T20:40:16.294Z,49.50
2022-09-21T20:42:44.685Z,49.47
2022-09-21T20:45:14.064Z,49.25
2022-09-21T20:47:42.396Z,49.46
2022-09-21T20:50:13.548Z,49.46
2022-09-21T20:52:42.524Z,49.47
2022-09-21T20:55:14.233Z,49.23
2022-09-21T20:57:42.357Z,49.59
2022-09-21T21:00:12.959Z,49.46
2022-09-21T21:02:41.806Z,49.48
2022-09-21T21:05:11.646Z,49.22
2022-09-21T21:07:42.552Z,49.24
2022-09-21T21:10:14.290Z,49.37
2022-09-21T21:12:42.786Z,49.46
2022-09-21T21:15:12.647Z,49.30
2022-09-21T21:17:42.191Z,49.56
2022-09-21T21:20:11.314Z,49.26
2022-09-21T21:22:39.409Z,49.14
2022-09-21T21:25:08.001Z,49.51
2022-09-21T21:27:37.633Z,49.35
2022-09-21T21:30:07.081Z,49.29
2022-09-21T21:32:35.736Z,49.59
2022-09-21T21:35:04.087Z,49.25
2022-09-21T21:37:32.304Z,49.37
2022-09-21T21:40:03.439Z,49.52
2022-09-21T21:42:31.790Z,49.22
2022-09-21T21:45:01.300Z,49.16
2022-09-21T21:47:44.609Z,49.51
2022-09-21T21:50:12.862Z,49.70
2022-09-21T21:52:40.983Z,49.53
2022-09-21T21:55:10.302Z,49.54
2022-09-21T21:57:38.453Z,49.44
2022-09-21T22:00:10.604Z,49.48
2022-09-21T22:02:38.758Z,49.36
2022-09-21T22:05:08.071Z,49.27
2022-09-21T22:07:36.150Z,49.56
2022-09-21T22:10:08.508Z,49.36
2022-09-21T22:12:36.701Z,49.64
2022-09-21T22:15:04.961Z,49.35
2022-09-21T22:17:34.554Z,49.53
2022-09-21T22:20:02.954Z,49.15
2022-09-21T22:22:31.049Z,49.60
2022-09-21T22:24:59.167Z,49.48
2022-09-21T22:27:27.265Z,49.46
2022-09-21T22:29:55.349Z,49.49
2022-09-21T22:32:23.486Z,49.33
2022-09-21T22:34:52.926Z,49.26
2022-09-21T22:37:21.010Z,49.48
2022-09-21T22:39:49.135Z,49.55
2022-09-21T22:42:17.357Z,49.54
2022-09-21T22:44:45.414Z,49.41
2022-09-21T22:47:13.517Z,49.52
2022-09-21T22:49:41.584Z,49.42
2022-09-21T22:52:11.151Z,49.65
2022-09-21T22:54:39.235Z,49.23
2022-09-21T22:57:07.367Z,49.46
2022-09-21T22:59:35.488Z,49.49
2022-09-21T23:02:03.599Z,49.35
2022-09-21T23:04:31.802Z,49.61
2022-09-21T23:06:59.909Z,49.48
2022-09-21T23:09:29.420Z,49.42
2022-09-21T23:11:57.559Z,49.60
2022-09-21T23:14:25.727Z,49.55
2022-09-21T23:16:54.310Z,49.42
2022-09-21T23:19:22.457Z,49.53
2022-09-21T23:21:51.519Z,49.31
2022-09-21T23:24:20.223Z,49.20
2022-09-21T23:26:51.700Z,49.72
2022-09-21T23:29:20.068Z,49.53
2022-09-21T23:31:48.453Z,49.29
2022-09-21T23:34:17.671Z,49.32
2022-09-21T23:36:46.241Z,49.21
2022-09-21T23:39:15.775Z,49.32
2022-09-21T23:41:44.776Z,49.50
2022-09-21T23:44:14.398Z,49.58
2022-09-21T23:46:43.176Z,49.42
2022-09-21T23:49:11.764Z,49.42
2022-09-21T23:51:40.433Z,49.62
2022-09-21T23:54:10.165Z,49.63
2022-09-21T23:56:38.625Z,49.45
2022-09-21T23:59:07.230Z,49.41
